sensor_id;sensor_type;location;lat;lon;timestamp;temperature;humidity
68026;SHT31;54819;48.030;14.710;2023-12-22T00:02:17;6.31;80.75
68026;SHT31;54819;48.030;14.710;2023-12-22T00:04:44;6.29;80.63
68026;SHT31;54819;48.030;14.710;2023-12-22T00:07:11;6.18;81.22
68026;SHT31;54819;48.030;14.710;2023-12-22T00:09:38;6.16;81.32
68026;SHT31;54819;48.030;14.710;2023-12-22T00:12:05;6.13;81.23
68026;SHT31;54819;48.030;14.710;2023-12-22T00:14:32;6.11;80.50
68026;SHT31;54819;48.030;14.710;2023-12-22T00:16:58;6.08;80.48
68026;SHT31;54819;48.030;14.710;2023-12-22T00:19:25;6.05;80.08
68026;SHT31;54819;48.030;14.710;2023-12-22T00:21:52;6.03;79.71
68026;SHT31;54819;48.030;14.710;2023-12-22T00:24:19;6.00;79.33
68026;SHT31;54819;48.030;14.710;2023-12-22T00:26:45;5.96;79.02
68026;SHT31;54819;48.030;14.710;2023-12-22T00:29:12;5.93;78.63
68026;SHT31;54819;48.030;14.710;2023-12-22T00:31:39;5.90;78.37
68026;SHT31;54819;48.030;14.710;2023-12-22T00:34:05;5.90;78.28
68026;SHT31;54819;48.030;14.710;2023-12-22T00:36:32;5.91;78.64
68026;SHT31;54819;48.030;14.710;2023-12-22T00:38:59;5.89;78.48
68026;SHT31;54819;48.030;14.710;2023-12-22T00:41:25;5.88;78.42
68026;SHT31;54819;48.030;14.710;2023-12-22T00:43:52;5.86;78.51
68026;SHT31;54819;48.030;14.710;2023-12-22T00:46:19;5.83;78.65
68026;SHT31;54819;48.030;14.710;2023-12-22T00:48:46;5.80;78.67
68026;SHT31;54819;48.030;14.710;2023-12-22T00:51:13;5.77;78.26
68026;SHT31;54819;48.030;14.710;2023-12-22T00:53:40;5.76;78.69
68026;SHT31;54819;48.030;14.710;2023-12-22T00:56:06;5.77;78.66
68026;SHT31;54819;48.030;14.710;2023-12-22T00:58:33;5.77;78.87
68026;SHT31;54819;48.030;14.710;2023-12-22T01:01:00;5.80;79.05
68026;SHT31;54819;48.030;14.710;2023-12-22T01:03:27;5.83;79.10
68026;SHT31;54819;48.030;14.710;2023-12-22T01:05:53;5.83;79.09
68026;SHT31;54819;48.030;14.710;2023-12-22T01:08:20;5.86;78.89
68026;SHT31;54819;48.030;14.710;2023-12-22T01:10:47;5.86;78.95
68026;SHT31;54819;48.030;14.710;2023-12-22T01:13:14;5.85;79.01
68026;SHT31;54819;48.030;14.710;2023-12-22T01:15:41;5.82;79.07
68026;SHT31;54819;48.030;14.710;2023-12-22T01:18:10;5.81;79.10
68026;SHT31;54819;48.030;14.710;2023-12-22T01:20:38;5.80;79.36
68026;SHT31;54819;48.030;14.710;2023-12-22T01:23:04;5.80;79.36
68026;SHT31;54819;48.030;14.710;2023-12-22T01:25:31;5.79;79.46
68026;SHT31;54819;48.030;14.710;2023-12-22T01:27:58;5.80;78.99
68026;SHT31;54819;48.030;14.710;2023-12-22T01:30:28;5.84;78.68
68026;SHT31;54819;48.030;14.710;2023-12-22T01:32:55;5.84;78.04
68026;SHT31;54819;48.030;14.710;2023-12-22T01:35:22;5.89;77.70
68026;SHT31;54819;48.030;14.710;2023-12-22T01:37:50;5.93;77.50
68026;SHT31;54819;48.030;14.710;2023-12-22T01:40:17;5.96;77.10
68026;SHT31;54819;48.030;14.710;2023-12-22T01:42:44;6.01;76.92
68026;SHT31;54819;48.030;14.710;2023-12-22T01:45:13;6.06;76.16
68026;SHT31;54819;48.030;14.710;2023-12-22T01:47:39;6.07;75.65
68026;SHT31;54819;48.030;14.710;2023-12-22T01:50:07;6.08;75.66
68026;SHT31;54819;48.030;14.710;2023-12-22T01:52:38;6.08;75.98
68026;SHT31;54819;48.030;14.710;2023-12-22T01:55:09;6.06;76.05
68026;SHT31;54819;48.030;14.710;2023-12-22T01:57:39;6.04;76.43
68026;SHT31;54819;48.030;14.710;2023-12-22T02:00:07;6.02;76.40
68026;SHT31;54819;48.030;14.710;2023-12-22T02:02:38;6.02;75.93
68026;SHT31;54819;48.030;14.710;2023-12-22T02:05:07;6.03;75.39
68026;SHT31;54819;48.030;14.710;2023-12-22T02:07:35;6.05;74.80
68026;SHT31;54819;48.030;14.710;2023-12-22T02:10:02;6.08;74.09
68026;SHT31;54819;48.030;14.710;2023-12-22T02:12:30;6.09;73.21
68026;SHT31;54819;48.030;14.710;2023-12-22T02:14:56;6.09;71.72
68026;SHT31;54819;48.030;14.710;2023-12-22T02:17:24;6.10;70.52
68026;SHT31;54819;48.030;14.710;2023-12-22T02:20:07;6.10;70.55
68026;SHT31;54819;48.030;14.710;2023-12-22T02:22:36;6.09;70.26
68026;SHT31;54819;48.030;14.710;2023-12-22T02:25:02;6.07;70.27
68026;SHT31;54819;48.030;14.710;2023-12-22T02:27:44;6.04;70.50
68026;SHT31;54819;48.030;14.710;2023-12-22T02:33:01;5.96;70.12
68026;SHT31;54819;48.030;14.710;2023-12-22T02:35:32;5.94;69.36
68026;SHT31;54819;48.030;14.710;2023-12-22T02:38:02;5.95;69.10
68026;SHT31;54819;48.030;14.710;2023-12-22T02:40:30;5.96;69.60
68026;SHT31;54819;48.030;14.710;2023-12-22T02:42:58;5.95;69.76
68026;SHT31;54819;48.030;14.710;2023-12-22T02:45:25;5.91;69.30
68026;SHT31;54819;48.030;14.710;2023-12-22T02:47:52;5.88;68.66
68026;SHT31;54819;48.030;14.710;2023-12-22T02:50:19;5.85;69.20
68026;SHT31;54819;48.030;14.710;2023-12-22T02:52:46;5.81;69.45
68026;SHT31;54819;48.030;14.710;2023-12-22T02:55:13;5.80;69.22
68026;SHT31;54819;48.030;14.710;2023-12-22T02:57:40;5.78;68.88
68026;SHT31;54819;48.030;14.710;2023-12-22T03:00:07;5.76;68.47
68026;SHT31;54819;48.030;14.710;2023-12-22T03:02:34;5.72;68.35
68026;SHT31;54819;48.030;14.710;2023-12-22T03:05:00;5.72;68.98
68026;SHT31;54819;48.030;14.710;2023-12-22T03:07:27;5.70;69.25
68026;SHT31;54819;48.030;14.710;2023-12-22T03:09:54;5.68;69.03
68026;SHT31;54819;48.030;14.710;2023-12-22T03:12:21;5.69;69.27
68026;SHT31;54819;48.030;14.710;2023-12-22T03:14:48;5.68;69.35
68026;SHT31;54819;48.030;14.710;2023-12-22T03:17:14;5.70;69.64
68026;SHT31;54819;48.030;14.710;2023-12-22T03:19:41;5.70;68.56
68026;SHT31;54819;48.030;14.710;2023-12-22T03:22:08;5.71;68.68
68026;SHT31;54819;48.030;14.710;2023-12-22T03:24:35;5.69;69.22
68026;SHT31;54819;48.030;14.710;2023-12-22T03:27:03;5.66;69.44
68026;SHT31;54819;48.030;14.710;2023-12-22T03:29:30;5.65;69.53
68026;SHT31;54819;48.030;14.710;2023-12-22T03:31:57;5.62;69.93
68026;SHT31;54819;48.030;14.710;2023-12-22T03:34:24;5.56;70.10
68026;SHT31;54819;48.030;14.710;2023-12-22T03:36:50;5.51;71.13
68026;SHT31;54819;48.030;14.710;2023-12-22T03:39:17;5.39;72.42
68026;SHT31;54819;48.030;14.710;2023-12-22T03:41:44;5.32;73.29
68026;SHT31;54819;48.030;14.710;2023-12-22T03:44:10;5.27;73.93
68026;SHT31;54819;48.030;14.710;2023-12-22T03:46:37;5.23;74.46
68026;SHT31;54819;48.030;14.710;2023-12-22T03:49:04;5.19;74.71
68026;SHT31;54819;48.030;14.710;2023-12-22T03:51:31;5.16;75.03
68026;SHT31;54819;48.030;14.710;2023-12-22T03:53:57;5.11;75.75
68026;SHT31;54819;48.030;14.710;2023-12-22T03:56:24;5.04;76.49
68026;SHT31;54819;48.030;14.710;2023-12-22T03:58:51;4.95;77.25
68026;SHT31;54819;48.030;14.710;2023-12-22T04:01:18;4.84;77.97
68026;SHT31;54819;48.030;14.710;2023-12-22T04:03:45;4.78;78.37
68026;SHT31;54819;48.030;14.710;2023-12-22T04:06:11;4.76;78.68
68026;SHT31;54819;48.030;14.710;2023-12-22T04:08:38;4.74;79.00
68026;SHT31;54819;48.030;14.710;2023-12-22T04:11:05;4.69;79.20
68026;SHT31;54819;48.030;14.710;2023-12-22T04:13:31;4.64;79.49
68026;SHT31;54819;48.030;14.710;2023-12-22T04:15:58;4.57;79.73
68026;SHT31;54819;48.030;14.710;2023-12-22T04:18:25;4.52;80.06
68026;SHT31;54819;48.030;14.710;2023-12-22T04:20:52;4.46;80.28
68026;SHT31;54819;48.030;14.710;2023-12-22T04:23:21;4.42;80.37
68026;SHT31;54819;48.030;14.710;2023-12-22T04:25:48;4.38;80.65
68026;SHT31;54819;48.030;14.710;2023-12-22T04:28:16;4.36;80.73
68026;SHT31;54819;48.030;14.710;2023-12-22T04:30:43;4.33;80.82
68026;SHT31;54819;48.030;14.710;2023-12-22T04:33:09;4.32;80.87
68026;SHT31;54819;48.030;14.710;2023-12-22T04:35:36;4.31;80.74
68026;SHT31;54819;48.030;14.710;2023-12-22T04:38:03;4.28;80.79
68026;SHT31;54819;48.030;14.710;2023-12-22T04:40:30;4.25;80.87
68026;SHT31;54819;48.030;14.710;2023-12-22T04:42:57;4.22;80.82
68026;SHT31;54819;48.030;14.710;2023-12-22T04:45:24;4.22;80.70
68026;SHT31;54819;48.030;14.710;2023-12-22T04:47:50;4.21;80.80
68026;SHT31;54819;48.030;14.710;2023-12-22T04:50:17;4.23;80.64
68026;SHT31;54819;48.030;14.710;2023-12-22T04:52:44;4.25;80.47
68026;SHT31;54819;48.030;14.710;2023-12-22T04:55:11;4.25;80.39
68026;SHT31;54819;48.030;14.710;2023-12-22T04:57:38;4.25;80.53
68026;SHT31;54819;48.030;14.710;2023-12-22T05:00:05;4.23;80.38
68026;SHT31;54819;48.030;14.710;2023-12-22T05:02:32;4.23;80.47
68026;SHT31;54819;48.030;14.710;2023-12-22T05:04:58;4.24;80.63
68026;SHT31;54819;48.030;14.710;2023-12-22T05:07:25;4.25;80.51
68026;SHT31;54819;48.030;14.710;2023-12-22T05:09:52;4.27;80.29
68026;SHT31;54819;48.030;14.710;2023-12-22T05:12:20;4.29;80.23
68026;SHT31;54819;48.030;14.710;2023-12-22T05:14:47;4.31;80.28
68026;SHT31;54819;48.030;14.710;2023-12-22T05:17:14;4.33;80.33
68026;SHT31;54819;48.030;14.710;2023-12-22T05:19:40;4.32;80.42
68026;SHT31;54819;48.030;14.710;2023-12-22T05:22:07;4.31;80.51
68026;SHT31;54819;48.030;14.710;2023-12-22T05:24:34;4.31;80.44
68026;SHT31;54819;48.030;14.710;2023-12-22T05:27:01;4.34;80.48
68026;SHT31;54819;48.030;14.710;2023-12-22T05:29:28;4.34;80.47
68026;SHT31;54819;48.030;14.710;2023-12-22T05:31:55;4.34;80.66
68026;SHT31;54819;48.030;14.710;2023-12-22T05:34:21;4.36;80.96
68026;SHT31;54819;48.030;14.710;2023-12-22T05:36:48;4.35;81.16
68026;SHT31;54819;48.030;14.710;2023-12-22T05:39:15;4.29;81.56
68026;SHT31;54819;48.030;14.710;2023-12-22T05:41:42;4.24;81.94
68026;SHT31;54819;48.030;14.710;2023-12-22T05:44:08;4.19;82.02
68026;SHT31;54819;48.030;14.710;2023-12-22T05:46:36;4.16;82.20
68026;SHT31;54819;48.030;14.710;2023-12-22T05:49:04;4.16;82.26
68026;SHT31;54819;48.030;14.710;2023-12-22T05:51:36;4.16;82.14
68026;SHT31;54819;48.030;14.710;2023-12-22T05:54:04;4.19;82.14
68026;SHT31;54819;48.030;14.710;2023-12-22T05:56:31;4.22;82.08
68026;SHT31;54819;48.030;14.710;2023-12-22T05:58:59;4.24;82.13
68026;SHT31;54819;48.030;14.710;2023-12-22T06:01:26;4.23;82.22
68026;SHT31;54819;48.030;14.710;2023-12-22T06:03:53;4.21;82.22
68026;SHT31;54819;48.030;14.710;2023-12-22T06:06:21;4.18;82.37
68026;SHT31;54819;48.030;14.710;2023-12-22T06:08:48;4.13;82.31
68026;SHT31;54819;48.030;14.710;2023-12-22T06:11:15;4.11;82.43
68026;SHT31;54819;48.030;14.710;2023-12-22T06:13:42;4.10;82.45
68026;SHT31;54819;48.030;14.710;2023-12-22T06:16:12;4.10;82.56
68026;SHT31;54819;48.030;14.710;2023-12-22T06:18:41;4.09;82.60
68026;SHT31;54819;48.030;14.710;2023-12-22T06:21:09;4.11;82.56
68026;SHT31;54819;48.030;14.710;2023-12-22T06:23:36;4.11;82.60
68026;SHT31;54819;48.030;14.710;2023-12-22T06:26:09;4.11;82.67
68026;SHT31;54819;48.030;14.710;2023-12-22T06:28:37;4.07;82.82
68026;SHT31;54819;48.030;14.710;2023-12-22T06:31:07;4.03;83.01
68026;SHT31;54819;48.030;14.710;2023-12-22T06:33:34;4.01;83.12
68026;SHT31;54819;48.030;14.710;2023-12-22T06:36:01;4.01;83.31
68026;SHT31;54819;48.030;14.710;2023-12-22T06:38:28;4.01;83.37
68026;SHT31;54819;48.030;14.710;2023-12-22T06:40:55;4.03;83.44
68026;SHT31;54819;48.030;14.710;2023-12-22T06:43:22;4.03;83.35
68026;SHT31;54819;48.030;14.710;2023-12-22T06:45:49;4.01;83.07
68026;SHT31;54819;48.030;14.710;2023-12-22T06:48:18;3.99;82.66
68026;SHT31;54819;48.030;14.710;2023-12-22T06:50:45;3.96;82.54
68026;SHT31;54819;48.030;14.710;2023-12-22T06:53:12;3.94;82.52
68026;SHT31;54819;48.030;14.710;2023-12-22T06:55:51;3.91;82.41
68026;SHT31;54819;48.030;14.710;2023-12-22T06:58:18;3.87;82.31
68026;SHT31;54819;48.030;14.710;2023-12-22T07:00:48;3.88;82.19
68026;SHT31;54819;48.030;14.710;2023-12-22T07:03:15;3.88;81.95
68026;SHT31;54819;48.030;14.710;2023-12-22T07:05:44;3.91;81.81
68026;SHT31;54819;48.030;14.710;2023-12-22T07:08:11;3.93;81.63
68026;SHT31;54819;48.030;14.710;2023-12-22T07:10:38;3.97;81.60
68026;SHT31;54819;48.030;14.710;2023-12-22T07:13:05;3.98;81.53
68026;SHT31;54819;48.030;14.710;2023-12-22T07:15:33;3.99;81.48
68026;SHT31;54819;48.030;14.710;2023-12-22T07:18:00;4.03;81.32
68026;SHT31;54819;48.030;14.710;2023-12-22T07:20:28;4.07;81.22
68026;SHT31;54819;48.030;14.710;2023-12-22T07:22:54;4.10;80.96
68026;SHT31;54819;48.030;14.710;2023-12-22T07:25:23;4.13;80.59
68026;SHT31;54819;48.030;14.710;2023-12-22T07:27:50;4.15;80.40
68026;SHT31;54819;48.030;14.710;2023-12-22T07:30:18;4.15;80.31
68026;SHT31;54819;48.030;14.710;2023-12-22T07:32:47;4.16;80.11
68026;SHT31;54819;48.030;14.710;2023-12-22T07:35:18;4.18;80.04
68026;SHT31;54819;48.030;14.710;2023-12-22T07:37:45;4.20;79.68
68026;SHT31;54819;48.030;14.710;2023-12-22T07:40:12;4.24;79.57
68026;SHT31;54819;48.030;14.710;2023-12-22T07:42:39;4.26;79.67
68026;SHT31;54819;48.030;14.710;2023-12-22T07:45:06;4.22;79.57
68026;SHT31;54819;48.030;14.710;2023-12-22T07:47:38;4.22;79.76
68026;SHT31;54819;48.030;14.710;2023-12-22T07:50:05;4.22;79.89
68026;SHT31;54819;48.030;14.710;2023-12-22T07:52:35;4.19;80.07
68026;SHT31;54819;48.030;14.710;2023-12-22T07:55:08;4.18;80.17
68026;SHT31;54819;48.030;14.710;2023-12-22T07:57:37;4.16;80.32
68026;SHT31;54819;48.030;14.710;2023-12-22T08:00:04;4.13;80.41
68026;SHT31;54819;48.030;14.710;2023-12-22T08:02:37;4.15;80.55
68026;SHT31;54819;48.030;14.710;2023-12-22T08:05:04;4.18;80.52
68026;SHT31;54819;48.030;14.710;2023-12-22T08:07:31;4.25;80.23
68026;SHT31;54819;48.030;14.710;2023-12-22T08:09:58;4.28;79.82
68026;SHT31;54819;48.030;14.710;2023-12-22T08:12:25;4.28;79.75
68026;SHT31;54819;48.030;14.710;2023-12-22T08:14:53;4.25;79.76
68026;SHT31;54819;48.030;14.710;2023-12-22T08:17:20;4.21;79.62
68026;SHT31;54819;48.030;14.710;2023-12-22T08:19:47;4.22;79.54
68026;SHT31;54819;48.030;14.710;2023-12-22T08:22:15;4.26;79.59
68026;SHT31;54819;48.030;14.710;2023-12-22T08:24:43;4.31;79.30
68026;SHT31;54819;48.030;14.710;2023-12-22T08:27:10;4.38;78.83
68026;SHT31;54819;48.030;14.710;2023-12-22T08:29:37;4.44;78.35
68026;SHT31;54819;48.030;14.710;2023-12-22T08:32:04;4.49;78.28
68026;SHT31;54819;48.030;14.710;2023-12-22T08:34:31;4.52;78.34
68026;SHT31;54819;48.030;14.710;2023-12-22T08:36:58;4.54;78.03
68026;SHT31;54819;48.030;14.710;2023-12-22T08:39:26;4.58;78.02
68026;SHT31;54819;48.030;14.710;2023-12-22T08:41:53;4.61;77.76
68026;SHT31;54819;48.030;14.710;2023-12-22T08:44:20;4.65;77.83
68026;SHT31;54819;48.030;14.710;2023-12-22T08:46:47;4.68;77.98
68026;SHT31;54819;48.030;14.710;2023-12-22T08:49:14;4.70;77.83
68026;SHT31;54819;48.030;14.710;2023-12-22T08:51:40;4.71;77.67
68026;SHT31;54819;48.030;14.710;2023-12-22T08:54:08;4.72;77.58
68026;SHT31;54819;48.030;14.710;2023-12-22T08:56:34;4.76;77.50
68026;SHT31;54819;48.030;14.710;2023-12-22T08:59:02;4.81;77.24
68026;SHT31;54819;48.030;14.710;2023-12-22T09:01:29;4.86;77.27
68026;SHT31;54819;48.030;14.710;2023-12-22T09:03:55;4.87;77.22
68026;SHT31;54819;48.030;14.710;2023-12-22T09:06:22;4.89;77.60
68026;SHT31;54819;48.030;14.710;2023-12-22T09:08:51;4.90;77.79
68026;SHT31;54819;48.030;14.710;2023-12-22T09:11:19;4.92;77.69
68026;SHT31;54819;48.030;14.710;2023-12-22T09:13:46;4.94;77.85
68026;SHT31;54819;48.030;14.710;2023-12-22T09:16:13;4.95;78.00
68026;SHT31;54819;48.030;14.710;2023-12-22T09:18:42;4.95;78.14
68026;SHT31;54819;48.030;14.710;2023-12-22T09:21:11;4.97;78.31
68026;SHT31;54819;48.030;14.710;2023-12-22T09:23:38;4.96;78.48
68026;SHT31;54819;48.030;14.710;2023-12-22T09:26:05;5.00;78.54
68026;SHT31;54819;48.030;14.710;2023-12-22T09:28:31;4.95;78.87
68026;SHT31;54819;48.030;14.710;2023-12-22T09:30:58;4.86;79.46
68026;SHT31;54819;48.030;14.710;2023-12-22T09:33:25;4.80;79.82
68026;SHT31;54819;48.030;14.710;2023-12-22T09:35:52;4.74;80.36
68026;SHT31;54819;48.030;14.710;2023-12-22T09:38:19;4.71;80.71
68026;SHT31;54819;48.030;14.710;2023-12-22T09:40:46;4.70;80.77
68026;SHT31;54819;48.030;14.710;2023-12-22T09:43:13;4.68;80.52
68026;SHT31;54819;48.030;14.710;2023-12-22T09:45:42;4.69;80.33
68026;SHT31;54819;48.030;14.710;2023-12-22T09:48:09;4.71;80.47
68026;SHT31;54819;48.030;14.710;2023-12-22T09:50:37;4.72;80.65
68026;SHT31;54819;48.030;14.710;2023-12-22T09:53:06;4.78;80.27
68026;SHT31;54819;48.030;14.710;2023-12-22T09:55:33;4.83;79.60
68026;SHT31;54819;48.030;14.710;2023-12-22T09:58:02;4.92;79.62
68026;SHT31;54819;48.030;14.710;2023-12-22T10:00:30;4.94;79.20
68026;SHT31;54819;48.030;14.710;2023-12-22T10:02:58;4.99;79.01
68026;SHT31;54819;48.030;14.710;2023-12-22T10:05:25;5.01;78.66
68026;SHT31;54819;48.030;14.710;2023-12-22T10:07:52;5.02;78.46
68026;SHT31;54819;48.030;14.710;2023-12-22T10:10:20;5.01;78.34
68026;SHT31;54819;48.030;14.710;2023-12-22T10:12:48;5.01;78.74
68026;SHT31;54819;48.030;14.710;2023-12-22T10:15:18;5.04;78.85
68026;SHT31;54819;48.030;14.710;2023-12-22T10:17:50;5.08;79.44
68026;SHT31;54819;48.030;14.710;2023-12-22T10:20:19;5.10;79.66
68026;SHT31;54819;48.030;14.710;2023-12-22T10:22:46;5.07;79.53
68026;SHT31;54819;48.030;14.710;2023-12-22T10:25:18;5.05;79.57
68026;SHT31;54819;48.030;14.710;2023-12-22T10:27:47;5.06;79.65
68026;SHT31;54819;48.030;14.710;2023-12-22T10:30:14;5.09;79.76
68026;SHT31;54819;48.030;14.710;2023-12-22T10:32:42;5.12;79.41
68026;SHT31;54819;48.030;14.710;2023-12-22T10:35:09;5.17;79.22
68026;SHT31;54819;48.030;14.710;2023-12-22T10:37:36;5.22;79.10
68026;SHT31;54819;48.030;14.710;2023-12-22T10:40:04;5.28;78.93
68026;SHT31;54819;48.030;14.710;2023-12-22T10:42:32;5.37;78.97
68026;SHT31;54819;48.030;14.710;2023-12-22T10:44:59;5.41;78.42
68026;SHT31;54819;48.030;14.710;2023-12-22T10:47:27;5.47;78.06
68026;SHT31;54819;48.030;14.710;2023-12-22T10:49:55;5.58;77.92
68026;SHT31;54819;48.030;14.710;2023-12-22T10:52:22;5.66;77.82
68026;SHT31;54819;48.030;14.710;2023-12-22T10:54:50;5.72;77.15
68026;SHT31;54819;48.030;14.710;2023-12-22T10:57:17;5.77;76.42
68026;SHT31;54819;48.030;14.710;2023-12-22T10:59:46;5.89;76.24
68026;SHT31;54819;48.030;14.710;2023-12-22T11:02:24;5.96;76.03
68026;SHT31;54819;48.030;14.710;2023-12-22T11:05:02;5.99;75.74
68026;SHT31;54819;48.030;14.710;2023-12-22T11:07:35;6.04;75.60
68026;SHT31;54819;48.030;14.710;2023-12-22T11:10:07;6.06;75.35
68026;SHT31;54819;48.030;14.710;2023-12-22T11:12:37;6.09;75.24
68026;SHT31;54819;48.030;14.710;2023-12-22T11:15:05;6.14;75.34
68026;SHT31;54819;48.030;14.710;2023-12-22T11:17:36;6.14;75.18
68026;SHT31;54819;48.030;14.710;2023-12-22T11:20:12;6.14;75.27
68026;SHT31;54819;48.030;14.710;2023-12-22T11:22:40;6.14;75.14
68026;SHT31;54819;48.030;14.710;2023-12-22T11:25:08;6.14;75.23
68026;SHT31;54819;48.030;14.710;2023-12-22T11:27:41;6.11;75.35
68026;SHT31;54819;48.030;14.710;2023-12-22T11:30:11;6.11;75.48
68026;SHT31;54819;48.030;14.710;2023-12-22T11:32:39;6.07;75.32
68026;SHT31;54819;48.030;14.710;2023-12-22T11:35:06;5.99;74.71
68026;SHT31;54819;48.030;14.710;2023-12-22T11:37:37;5.91;75.11
68026;SHT31;54819;48.030;14.710;2023-12-22T11:40:04;5.74;75.82
68026;SHT31;54819;48.030;14.710;2023-12-22T11:42:33;5.57;77.04
68026;SHT31;54819;48.030;14.710;2023-12-22T11:45:05;5.36;78.31
68026;SHT31;54819;48.030;14.710;2023-12-22T11:47:32;5.16;79.63
68026;SHT31;54819;48.030;14.710;2023-12-22T11:50:01;4.99;80.67
68026;SHT31;54819;48.030;14.710;2023-12-22T11:52:28;4.81;82.04
68026;SHT31;54819;48.030;14.710;2023-12-22T11:54:55;4.71;82.51
68026;SHT31;54819;48.030;14.710;2023-12-22T11:57:30;4.70;82.80
68026;SHT31;54819;48.030;14.710;2023-12-22T11:59:58;4.67;83.29
68026;SHT31;54819;48.030;14.710;2023-12-22T12:02:37;4.72;83.47
68026;SHT31;54819;48.030;14.710;2023-12-22T12:05:08;4.76;83.34
68026;SHT31;54819;48.030;14.710;2023-12-22T12:07:36;4.80;83.39
68026;SHT31;54819;48.030;14.710;2023-12-22T12:10:04;4.81;83.65
68026;SHT31;54819;48.030;14.710;2023-12-22T12:12:32;4.83;83.52
68026;SHT31;54819;48.030;14.710;2023-12-22T12:15:07;4.86;83.39
68026;SHT31;54819;48.030;14.710;2023-12-22T12:17:43;4.89;83.29
68026;SHT31;54819;48.030;14.710;2023-12-22T12:20:11;4.92;83.32
68026;SHT31;54819;48.030;14.710;2023-12-22T12:22:39;4.94;83.26
68026;SHT31;54819;48.030;14.710;2023-12-22T12:25:06;4.96;83.33
68026;SHT31;54819;48.030;14.710;2023-12-22T12:27:50;4.99;83.32
68026;SHT31;54819;48.030;14.710;2023-12-22T12:30:27;4.99;83.24
68026;SHT31;54819;48.030;14.710;2023-12-22T12:32:54;4.99;83.34
68026;SHT31;54819;48.030;14.710;2023-12-22T12:35:29;5.05;83.08
68026;SHT31;54819;48.030;14.710;2023-12-22T12:37:56;5.11;82.54
68026;SHT31;54819;48.030;14.710;2023-12-22T12:40:24;5.18;82.41
68026;SHT31;54819;48.030;14.710;2023-12-22T12:42:51;5.22;81.95
68026;SHT31;54819;48.030;14.710;2023-12-22T12:45:22;5.14;80.87
68026;SHT31;54819;48.030;14.710;2023-12-22T12:50:27;4.91;81.60
68026;SHT31;54819;48.030;14.710;2023-12-22T12:52:55;4.78;81.86
68026;SHT31;54819;48.030;14.710;2023-12-22T12:55:23;4.64;82.03
68026;SHT31;54819;48.030;14.710;2023-12-22T12:57:55;4.53;82.28
68026;SHT31;54819;48.030;14.710;2023-12-22T13:00:29;4.44;83.02
68026;SHT31;54819;48.030;14.710;2023-12-22T13:03:00;4.32;83.27
68026;SHT31;54819;48.030;14.710;2023-12-22T13:05:32;4.16;83.65
68026;SHT31;54819;48.030;14.710;2023-12-22T13:08:09;4.04;84.18
68026;SHT31;54819;48.030;14.710;2023-12-22T13:10:37;3.97;84.29
68026;SHT31;54819;48.030;14.710;2023-12-22T13:13:05;3.84;84.39
68026;SHT31;54819;48.030;14.710;2023-12-22T13:15:32;3.70;84.69
68026;SHT31;54819;48.030;14.710;2023-12-22T13:18:00;3.63;84.66
68026;SHT31;54819;48.030;14.710;2023-12-22T13:20:27;3.55;84.55
68026;SHT31;54819;48.030;14.710;2023-12-22T13:22:55;3.51;84.47
68026;SHT31;54819;48.030;14.710;2023-12-22T13:25:22;3.47;84.35
68026;SHT31;54819;48.030;14.710;2023-12-22T13:27:51;3.42;84.20
68026;SHT31;54819;48.030;14.710;2023-12-22T13:33:08;3.31;84.04
68026;SHT31;54819;48.030;14.710;2023-12-22T13:35:35;3.23;84.09
68026;SHT31;54819;48.030;14.710;2023-12-22T13:38:08;3.13;84.27
68026;SHT31;54819;48.030;14.710;2023-12-22T13:40:37;3.04;84.44
68026;SHT31;54819;48.030;14.710;2023-12-22T13:43:05;2.98;84.62
68026;SHT31;54819;48.030;14.710;2023-12-22T13:45:34;2.94;84.80
68026;SHT31;54819;48.030;14.710;2023-12-22T13:48:02;2.88;84.94
68026;SHT31;54819;48.030;14.710;2023-12-22T13:50:29;2.84;84.97
68026;SHT31;54819;48.030;14.710;2023-12-22T13:52:56;2.80;84.98
68026;SHT31;54819;48.030;14.710;2023-12-22T13:55:34;2.77;84.98
68026;SHT31;54819;48.030;14.710;2023-12-22T13:58:04;2.76;84.98
68026;SHT31;54819;48.030;14.710;2023-12-22T14:00:30;2.76;84.98
68026;SHT31;54819;48.030;14.710;2023-12-22T14:02:58;2.76;84.86
68026;SHT31;54819;48.030;14.710;2023-12-22T14:05:27;2.75;84.82
68026;SHT31;54819;48.030;14.710;2023-12-22T14:08:01;2.74;84.96
68026;SHT31;54819;48.030;14.710;2023-12-22T14:10:28;2.72;85.00
68026;SHT31;54819;48.030;14.710;2023-12-22T14:12:55;2.73;85.05
68026;SHT31;54819;48.030;14.710;2023-12-22T14:15:22;2.73;85.02
68026;SHT31;54819;48.030;14.710;2023-12-22T14:17:56;2.72;85.06
68026;SHT31;54819;48.030;14.710;2023-12-22T14:20:23;2.67;85.10
68026;SHT31;54819;48.030;14.710;2023-12-22T14:22:51;2.63;85.11
68026;SHT31;54819;48.030;14.710;2023-12-22T14:25:19;2.58;85.25
68026;SHT31;54819;48.030;14.710;2023-12-22T14:27:46;2.55;85.33
68026;SHT31;54819;48.030;14.710;2023-12-22T14:30:14;2.52;85.52
68026;SHT31;54819;48.030;14.710;2023-12-22T14:32:40;2.51;85.70
68026;SHT31;54819;48.030;14.710;2023-12-22T14:35:07;2.53;85.64
68026;SHT31;54819;48.030;14.710;2023-12-22T14:37:34;2.54;85.60
68026;SHT31;54819;48.030;14.710;2023-12-22T14:40:02;2.58;85.61
68026;SHT31;54819;48.030;14.710;2023-12-22T14:42:29;2.60;85.66
68026;SHT31;54819;48.030;14.710;2023-12-22T14:44:56;2.64;85.69
68026;SHT31;54819;48.030;14.710;2023-12-22T14:47:23;2.67;85.70
68026;SHT31;54819;48.030;14.710;2023-12-22T14:49:49;2.71;85.70
68026;SHT31;54819;48.030;14.710;2023-12-22T14:52:16;2.74;85.69
68026;SHT31;54819;48.030;14.710;2023-12-22T14:54:43;2.79;85.72
68026;SHT31;54819;48.030;14.710;2023-12-22T14:57:10;2.83;85.81
68026;SHT31;54819;48.030;14.710;2023-12-22T14:59:37;2.87;85.85
68026;SHT31;54819;48.030;14.710;2023-12-22T15:02:03;2.91;85.86
68026;SHT31;54819;48.030;14.710;2023-12-22T15:04:33;2.92;85.90
68026;SHT31;54819;48.030;14.710;2023-12-22T15:07:00;2.95;85.93
68026;SHT31;54819;48.030;14.710;2023-12-22T15:09:28;2.97;86.14
68026;SHT31;54819;48.030;14.710;2023-12-22T15:11:55;3.01;86.40
68026;SHT31;54819;48.030;14.710;2023-12-22T15:14:22;3.07;86.60
68026;SHT31;54819;48.030;14.710;2023-12-22T15:16:49;3.12;86.71
68026;SHT31;54819;48.030;14.710;2023-12-22T15:19:19;3.16;86.91
68026;SHT31;54819;48.030;14.710;2023-12-22T15:21:46;3.20;86.99
68026;SHT31;54819;48.030;14.710;2023-12-22T15:24:13;3.25;87.04
68026;SHT31;54819;48.030;14.710;2023-12-22T15:26:40;3.29;86.97
68026;SHT31;54819;48.030;14.710;2023-12-22T15:29:08;3.33;86.87
68026;SHT31;54819;48.030;14.710;2023-12-22T15:31:35;3.36;86.80
68026;SHT31;54819;48.030;14.710;2023-12-22T15:34:04;3.41;86.79
68026;SHT31;54819;48.030;14.710;2023-12-22T15:36:33;3.47;86.79
68026;SHT31;54819;48.030;14.710;2023-12-22T15:39:00;3.54;86.74
68026;SHT31;54819;48.030;14.710;2023-12-22T15:41:30;3.60;86.77
68026;SHT31;54819;48.030;14.710;2023-12-22T15:43:57;3.69;86.80